createdAt,value
2017-10-11T00:02:23.039Z,12.10
2017-10-11T00:04:49.358Z,12.10
2017-10-11T00:07:16.316Z,12.00
2017-10-11T00:09:42.433Z,12.00
2017-10-11T00:12:09.418Z,12.00
2017-10-11T00:14:35.624Z,11.90
2017-10-11T00:17:01.804Z,12.00
2017-10-11T00:19:28.017Z,11.90
2017-10-11T00:21:54.161Z,11.90
2017-10-11T00:24:21.102Z,11.80
2017-10-11T00:26:47.997Z,11.80
2017-10-11T00:29:14.163Z,11.70
2017-10-11T00:31:40.363Z,11.70
2017-10-11T00:34:06.443Z,11.70
2017-10-11T00:36:32.605Z,11.80
2017-10-11T00:38:58.820Z,11.80
2017-10-11T00:41:25.027Z,11.70
2017-10-11T00:43:51.325Z,11.70
2017-10-11T00:46:17.457Z,11.70
2017-10-11T00:48:44.418Z,11.60
2017-10-11T00:51:10.640Z,11.60
2017-10-11T00:53:36.850Z,11.60
2017-10-11T00:56:03.040Z,11.60
2017-10-11T00:58:30.314Z,11.60
2017-10-11T01:00:56.518Z,11.60
2017-10-11T01:03:22.649Z,11.60
2017-10-11T01:05:48.803Z,11.60
2017-10-11T01:08:15.770Z,11.60
2017-10-11T01:10:42.726Z,11.60
2017-10-11T01:13:08.931Z,11.60
2017-10-11T01:15:35.831Z,11.70
2017-10-11T01:18:02.049Z,11.70
2017-10-11T01:20:28.220Z,11.70
2017-10-11T01:22:55.225Z,11.60
2017-10-11T01:25:21.413Z,11.60
2017-10-11T01:27:48.377Z,11.50
2017-10-11T01:30:14.512Z,11.50
2017-10-11T01:32:40.671Z,11.50
2017-10-11T01:35:06.961Z,11.50
2017-10-11T01:37:33.090Z,11.50
2017-10-11T01:39:59.267Z,11.50
2017-10-11T01:42:26.103Z,11.50
2017-10-11T01:44:52.270Z,11.40
2017-10-11T01:47:18.397Z,11.50
2017-10-11T01:49:44.532Z,11.50
2017-10-11T01:52:10.821Z,11.50
2017-10-11T01:54:37.765Z,11.40
2017-10-11T01:57:04.658Z,11.40
2017-10-11T01:59:30.803Z,11.40
2017-10-11T02:01:57.063Z,11.40
2017-10-11T02:04:23.253Z,11.40
2017-10-11T02:06:49.676Z,11.40
2017-10-11T02:09:15.879Z,11.40
2017-10-11T02:11:42.070Z,11.40
2017-10-11T02:14:09.015Z,11.50
2017-10-11T02:16:36.031Z,11.50
2017-10-11T02:19:02.211Z,11.50
2017-10-11T02:21:28.320Z,11.50
2017-10-11T02:23:54.565Z,11.50
2017-10-11T02:26:20.691Z,11.50
2017-10-11T02:28:46.848Z,11.50
2017-10-11T02:31:12.952Z,11.50
2017-10-11T02:33:39.168Z,11.50
2017-10-11T02:36:05.328Z,11.50
2017-10-11T02:38:31.526Z,11.50
2017-10-11T02:40:57.660Z,11.50
2017-10-11T02:43:23.882Z,11.50
2017-10-11T02:45:50.099Z,11.50
2017-10-11T02:48:16.258Z,11.50
2017-10-11T02:50:42.400Z,11.50
2017-10-11T02:53:09.248Z,11.40
2017-10-11T02:55:35.336Z,11.40
2017-10-11T02:58:01.415Z,11.40
2017-10-11T03:00:28.250Z,11.40
2017-10-11T03:02:54.440Z,11.30
2017-10-11T03:05:20.646Z,11.30
2017-10-11T03:07:47.007Z,11.40
2017-10-11T03:10:13.118Z,11.50
2017-10-11T03:12:39.302Z,11.60
2017-10-11T03:15:05.531Z,11.60
2017-10-11T03:17:31.834Z,11.60
2017-10-11T03:19:58.725Z,11.60
2017-10-11T03:22:24.894Z,11.60
2017-10-11T03:24:51.078Z,11.60
2017-10-11T03:27:17.844Z,11.60
2017-10-11T03:29:43.967Z,11.60
2017-10-11T03:32:10.136Z,11.60
2017-10-11T03:34:36.295Z,11.60
2017-10-11T03:37:02.420Z,11.60
2017-10-11T03:39:28.699Z,11.70
2017-10-11T03:41:55.647Z,11.60
2017-10-11T03:44:22.562Z,11.70
2017-10-11T03:46:48.901Z,11.70
2017-10-11T03:49:16.098Z,11.70
2017-10-11T03:51:42.256Z,11.70
2017-10-11T03:54:08.418Z,11.70
2017-10-11T03:56:35.238Z,11.70
2017-10-11T03:59:01.395Z,11.70
2017-10-11T04:01:28.272Z,11.70
2017-10-11T04:03:54.693Z,11.70
2017-10-11T04:06:20.871Z,11.70
2017-10-11T04:08:47.064Z,11.70
2017-10-11T04:11:13.212Z,11.70
2017-10-11T04:13:39.396Z,11.60
2017-10-11T04:16:05.552Z,11.50
2017-10-11T04:18:31.740Z,11.50
2017-10-11T04:20:57.914Z,11.50
2017-10-11T04:23:24.161Z,11.50
2017-10-11T04:25:51.046Z,11.60
2017-10-11T04:28:17.177Z,11.60
2017-10-11T04:30:43.330Z,11.60
2017-10-11T04:33:09.414Z,11.60
2017-10-11T04:35:35.613Z,11.60
2017-10-11T04:38:02.583Z,11.60
2017-10-11T04:40:28.817Z,11.60
2017-10-11T04:42:55.059Z,11.70
2017-10-11T04:45:21.241Z,11.70
2017-10-11T04:47:48.171Z,11.60
2017-10-11T04:50:15.086Z,11.60
2017-10-11T04:52:41.215Z,11.60
2017-10-11T04:55:07.387Z,11.50
2017-10-11T04:57:33.604Z,11.50
2017-10-11T05:00:00.409Z,11.50
2017-10-11T05:02:26.648Z,11.50
2017-10-11T05:04:52.776Z,11.50
2017-10-11T05:07:19.105Z,11.40
2017-10-11T05:09:45.259Z,11.40
2017-10-11T05:12:12.117Z,11.30
2017-10-11T05:14:38.258Z,11.30
2017-10-11T05:17:04.394Z,11.30
2017-10-11T05:19:30.566Z,11.30
2017-10-11T05:21:57.515Z,11.20
2017-10-11T05:24:23.684Z,11.20
2017-10-11T05:26:49.822Z,11.20
2017-10-11T05:29:15.950Z,11.30
2017-10-11T05:31:42.162Z,11.30
2017-10-11T05:34:08.467Z,11.30
2017-10-11T05:36:34.714Z,11.50
2017-10-11T05:39:00.886Z,11.50
2017-10-11T05:41:27.799Z,11.50
2017-10-11T05:43:53.954Z,11.50
2017-10-11T05:46:20.845Z,11.70
2017-10-11T05:48:46.955Z,11.70
2017-10-11T05:51:13.092Z,11.80
2017-10-11T05:53:39.262Z,11.80
2017-10-11T05:56:05.427Z,11.80
2017-10-11T05:58:31.602Z,11.70
2017-10-11T06:00:57.755Z,11.80
2017-10-11T06:03:24.677Z,11.80
2017-10-11T06:05:50.922Z,11.80
2017-10-11T06:08:17.146Z,11.90
2017-10-11T06:10:44.006Z,11.90
2017-10-11T06:13:10.902Z,12.00
2017-10-11T06:15:37.058Z,12.00
2017-10-11T06:18:03.995Z,12.10
2017-10-11T06:20:30.091Z,12.00
2017-10-11T06:22:56.288Z,12.10
2017-10-11T06:25:22.458Z,12.20
2017-10-11T06:27:48.715Z,12.20
2017-10-11T06:30:15.672Z,12.20
2017-10-11T06:32:41.873Z,12.20
2017-10-11T06:35:08.106Z,12.20
2017-10-11T06:37:34.980Z,12.30
2017-10-11T06:40:01.153Z,12.30
2017-10-11T06:42:27.289Z,12.30
2017-10-11T06:44:53.465Z,12.30
2017-10-11T06:47:19.675Z,12.40
2017-10-11T06:49:45.843Z,12.30
2017-10-11T06:52:11.983Z,12.30
2017-10-11T06:54:38.236Z,12.30
2017-10-11T06:57:05.143Z,12.20
2017-10-11T06:59:31.337Z,12.20
2017-10-11T07:01:57.492Z,12.20
2017-10-11T07:04:23.753Z,12.20
2017-10-11T07:06:50.704Z,12.10
2017-10-11T07:09:17.594Z,12.10
2017-10-11T07:11:43.894Z,12.10
2017-10-11T07:14:10.107Z,12.10
2017-10-11T07:16:36.973Z,12.10
2017-10-11T07:19:03.053Z,12.10
2017-10-11T07:21:29.263Z,12.20
2017-10-11T07:23:55.420Z,12.20
2017-10-11T07:26:22.395Z,12.30
2017-10-11T07:28:48.484Z,12.30
2017-10-11T07:31:15.392Z,12.30
2017-10-11T07:33:41.559Z,12.20
2017-10-11T07:36:08.428Z,12.20
2017-10-11T07:38:34.637Z,12.30
2017-10-11T07:41:00.806Z,12.30
2017-10-11T07:43:26.962Z,12.40
2017-10-11T07:45:53.879Z,12.30
2017-10-11T07:48:20.142Z,12.30
2017-10-11T07:50:47.018Z,12.40
2017-10-11T07:53:13.118Z,12.30
2017-10-11T07:55:40.092Z,12.40
2017-10-11T07:58:06.317Z,12.30
2017-10-11T08:00:32.467Z,12.40
2017-10-11T08:02:58.768Z,12.40
2017-10-11T08:05:24.926Z,12.40
2017-10-11T08:07:51.262Z,12.50
2017-10-11T08:10:17.585Z,12.60
2017-10-11T08:12:43.687Z,12.60
2017-10-11T08:15:09.883Z,12.80
2017-10-11T08:17:36.183Z,12.90
2017-10-11T08:20:02.327Z,12.90
2017-10-11T08:22:29.226Z,13.10
2017-10-11T08:24:56.299Z,13.00
2017-10-11T08:27:23.217Z,13.10
2017-10-11T08:29:49.346Z,13.10
2017-10-11T08:32:15.460Z,13.10
2017-10-11T08:34:41.645Z,13.10
2017-10-11T08:37:07.852Z,13.10
2017-10-11T08:39:34.806Z,13.20
2017-10-11T08:42:01.651Z,13.40
2017-10-11T08:44:28.638Z,13.50
2017-10-11T08:46:54.834Z,13.40
2017-10-11T08:49:20.929Z,13.50
2017-10-11T08:51:47.889Z,13.60
2017-10-11T08:54:14.820Z,13.60
2017-10-11T08:56:41.736Z,13.60
2017-10-11T08:59:07.927Z,13.60
2017-10-11T09:01:34.043Z,13.60
2017-10-11T09:04:00.364Z,13.60
2017-10-11T09:06:26.556Z,13.50
2017-10-11T09:08:52.699Z,13.50
2017-10-11T09:11:19.662Z,13.50
2017-10-11T09:13:45.771Z,13.50
2017-10-11T09:16:12.923Z,13.40
2017-10-11T09:18:39.931Z,13.40
2017-10-11T09:21:06.100Z,13.40
2017-10-11T09:23:33.091Z,13.30
2017-10-11T09:25:59.250Z,13.30
2017-10-11T09:28:26.140Z,13.30
2017-10-11T09:30:52.449Z,13.30
2017-10-11T09:33:18.674Z,13.20
2017-10-11T09:35:44.786Z,13.20
2017-10-11T09:38:11.012Z,13.20
2017-10-11T09:40:37.978Z,13.20
2017-10-11T09:43:04.109Z,13.20
2017-10-11T09:45:30.260Z,13.20
2017-10-11T09:47:56.467Z,13.20
2017-10-11T09:50:22.662Z,13.20
2017-10-11T09:52:48.857Z,13.20
2017-10-11T09:55:15.173Z,13.20
2017-10-11T09:57:41.316Z,13.20
2017-10-11T10:00:07.572Z,13.20
2017-10-11T10:02:33.824Z,13.20
2017-10-11T10:05:00.249Z,13.10
2017-10-11T10:07:26.441Z,13.10
2017-10-11T10:09:53.334Z,13.10
2017-10-11T10:12:19.567Z,13.10
2017-10-11T10:14:45.722Z,13.20
2017-10-11T10:17:11.936Z,13.20
2017-10-11T10:19:38.138Z,13.20
2017-10-11T10:22:04.298Z,13.30
2017-10-11T10:24:30.580Z,13.30
2017-10-11T10:26:56.714Z,13.30
2017-10-11T10:29:22.881Z,13.30
2017-10-11T10:31:49.236Z,13.30
2017-10-11T10:34:16.122Z,13.30
2017-10-11T10:36:42.314Z,13.30
2017-10-11T10:39:09.304Z,13.40
2017-10-11T10:41:35.469Z,13.40
2017-10-11T10:44:02.434Z,13.50
2017-10-11T10:46:28.676Z,13.50
2017-10-11T10:48:55.039Z,13.60
2017-10-11T10:51:21.220Z,13.70
2017-10-11T10:53:47.388Z,13.70
2017-10-11T10:56:14.352Z,13.70
2017-10-11T10:58:40.609Z,13.70
2017-10-11T11:01:06.849Z,13.70
2017-10-11T11:03:33.057Z,13.80
2017-10-11T11:06:00.037Z,14.00
2017-10-11T11:08:26.367Z,14.00
2017-10-11T11:10:52.499Z,14.20
2017-10-11T11:13:18.661Z,14.40
2017-10-11T11:15:45.095Z,14.60
2017-10-11T11:18:12.174Z,14.80
2017-10-11T11:20:38.310Z,15.00
2017-10-11T11:23:04.535Z,15.20
2017-10-11T11:25:30.722Z,15.20
2017-10-11T11:27:57.358Z,15.40
2017-10-11T11:30:23.635Z,15.50
2017-10-11T11:32:49.861Z,15.70
2017-10-11T11:35:16.159Z,15.80
2017-10-11T11:37:42.808Z,15.90
2017-10-11T11:40:09.794Z,15.80
2017-10-11T11:42:35.984Z,15.70
2017-10-11T11:45:02.186Z,15.70
2017-10-11T11:47:29.200Z,15.60
2017-10-11T11:49:55.404Z,15.60
2017-10-11T11:52:21.781Z,15.60
2017-10-11T11:54:48.097Z,15.70
2017-10-11T11:57:14.379Z,15.80
2017-10-11T11:59:40.488Z,16.00
2017-10-11T12:02:06.659Z,16.10
2017-10-11T12:04:32.938Z,16.20
2017-10-11T12:06:59.186Z,16.20
2017-10-11T12:09:25.396Z,16.30
2017-10-11T12:11:52.266Z,16.20
2017-10-11T12:14:18.478Z,16.20
2017-10-11T12:16:44.672Z,16.20
2017-10-11T12:19:10.897Z,16.20
2017-10-11T12:21:37.147Z,16.20
2017-10-11T12:24:04.044Z,16.30
2017-10-11T12:26:30.292Z,16.30
2017-10-11T12:28:56.410Z,16.40
2017-10-11T12:31:22.692Z,16.40
2017-10-11T12:33:48.856Z,16.50
2017-10-11T12:36:15.247Z,16.40
2017-10-11T12:38:41.558Z,16.50
2017-10-11T12:41:07.700Z,16.50
2017-10-11T12:43:33.931Z,16.30
2017-10-11T12:46:00.075Z,16.20
2017-10-11T12:48:26.422Z,16.20
2017-10-11T12:50:52.573Z,16.10
2017-10-11T12:53:18.783Z,16.10
2017-10-11T12:55:44.991Z,15.90
2017-10-11T12:58:11.529Z,15.80
2017-10-11T13:00:37.930Z,15.60
2017-10-11T13:03:04.407Z,15.60
2017-10-11T13:05:30.487Z,15.50
2017-10-11T13:07:56.982Z,15.50
2017-10-11T13:10:23.162Z,15.50
2017-10-11T13:12:49.327Z,15.50
2017-10-11T13:15:15.450Z,15.50
2017-10-11T13:17:41.581Z,15.50
2017-10-11T13:20:08.607Z,15.50
2017-10-11T13:22:35.587Z,15.50
2017-10-11T13:25:02.403Z,15.60
2017-10-11T13:27:28.566Z,15.70
2017-10-11T13:29:54.696Z,15.80
2017-10-11T13:32:20.856Z,15.90
2017-10-11T13:34:47.090Z,16.00
2017-10-11T13:37:13.251Z,15.90
2017-10-11T13:39:40.123Z,16.10
2017-10-11T13:42:06.393Z,16.10
2017-10-11T13:44:32.520Z,16.30
2017-10-11T13:46:58.818Z,16.30
2017-10-11T13:49:25.064Z,16.20
2017-10-11T13:51:51.302Z,16.40
2017-10-11T13:54:17.756Z,16.50
2017-10-11T13:56:44.636Z,16.20
2017-10-11T13:59:10.933Z,16.20
2017-10-11T14:01:38.292Z,16.10
2017-10-11T14:04:05.255Z,16.00
2017-10-11T14:06:31.583Z,16.00
2017-10-11T14:08:57.750Z,15.80
2017-10-11T14:11:23.824Z,15.80
2017-10-11T14:13:50.719Z,15.50
2017-10-11T14:16:17.068Z,15.50
2017-10-11T14:18:43.322Z,15.50
2017-10-11T14:21:09.547Z,15.40
2017-10-11T14:23:36.535Z,15.30
2017-10-11T14:26:02.831Z,15.20
2017-10-11T14:28:30.151Z,15.10
2017-10-11T14:30:57.143Z,14.90
2017-10-11T14:33:23.302Z,14.90
2017-10-11T14:35:49.557Z,14.70
2017-10-11T14:38:15.800Z,14.70
2017-10-11T14:40:42.104Z,14.70
2017-10-11T14:43:08.299Z,14.60
2017-10-11T14:45:34.643Z,14.60
2017-10-11T14:48:00.856Z,14.60
2017-10-11T14:50:27.024Z,14.50
2017-10-11T14:52:54.019Z,14.50
2017-10-11T14:55:20.324Z,14.50
2017-10-11T14:57:46.570Z,14.50
2017-10-11T15:00:12.732Z,14.50
2017-10-11T15:02:39.020Z,14.40
2017-10-11T15:05:05.224Z,14.40
2017-10-11T15:07:32.152Z,14.30
2017-10-11T15:09:58.243Z,14.30
2017-10-11T15:12:25.261Z,14.20
2017-10-11T15:14:51.441Z,14.10
2017-10-11T15:17:17.549Z,14.10
2017-10-11T15:19:45.220Z,14.10
2017-10-11T15:22:11.453Z,14.10
2017-10-11T15:24:37.723Z,14.10
2017-10-11T15:27:03.984Z,14.00
2017-10-11T15:29:30.294Z,14.10
2017-10-11T15:31:56.616Z,14.00
2017-10-11T15:34:22.860Z,13.90
2017-10-11T15:36:49.061Z,13.90
2017-10-11T15:39:15.429Z,13.90
2017-10-11T15:41:41.657Z,13.90
2017-10-11T15:44:07.901Z,13.80
2017-10-11T15:46:34.251Z,13.70
2017-10-11T15:49:01.149Z,13.70
2017-10-11T15:51:27.294Z,13.60
2017-10-11T15:53:53.490Z,13.70
2017-10-11T15:56:19.743Z,13.70
2017-10-11T15:58:46.526Z,13.70
2017-10-11T16:01:13.508Z,13.60
2017-10-11T16:03:39.947Z,13.60
2017-10-11T16:06:06.868Z,13.60
2017-10-11T16:08:33.176Z,13.60
2017-10-11T16:10:59.440Z,13.60
2017-10-11T16:13:25.722Z,13.60
2017-10-11T16:15:52.592Z,13.50
2017-10-11T16:18:19.142Z,13.50
2017-10-11T16:20:45.536Z,13.50
2017-10-11T16:23:12.534Z,13.40
2017-10-11T16:25:38.796Z,13.40
2017-10-11T16:28:05.095Z,13.40
2017-10-11T16:30:31.252Z,13.50
2017-10-11T16:32:58.290Z,13.40
2017-10-11T16:35:24.423Z,13.40
2017-10-11T16:37:51.371Z,13.30
2017-10-11T16:40:18.303Z,13.30
2017-10-11T16:42:44.669Z,13.30
2017-10-11T16:45:10.956Z,13.30
2017-10-11T16:47:37.103Z,13.30
2017-10-11T16:50:04.079Z,13.30
2017-10-11T16:52:30.302Z,13.20
2017-10-11T16:54:56.843Z,13.30
2017-10-11T16:57:23.091Z,13.20
2017-10-11T16:59:49.269Z,13.20
2017-10-11T17:02:16.229Z,13.20
2017-10-11T17:04:42.470Z,13.10
2017-10-11T17:07:08.578Z,13.20
2017-10-11T17:09:34.878Z,13.10
2017-10-11T17:12:01.798Z,13.10
2017-10-11T17:14:27.975Z,13.10
2017-10-11T17:16:54.182Z,13.10
2017-10-11T17:19:21.154Z,13.10
2017-10-11T17:21:47.543Z,13.10
2017-10-11T17:24:13.750Z,13.10
2017-10-11T17:26:40.010Z,13.10
2017-10-11T17:29:06.940Z,13.10
2017-10-11T17:31:33.170Z,13.10
2017-10-11T17:33:59.347Z,13.10
2017-10-11T17:36:25.533Z,13.10
2017-10-11T17:38:52.431Z,13.10
2017-10-11T17:41:18.658Z,13.10
2017-10-11T17:43:45.065Z,13.10
2017-10-11T17:46:11.361Z,13.10
2017-10-11T17:48:38.261Z,13.10
2017-10-11T17:51:04.433Z,13.00
2017-10-11T17:53:31.588Z,13.10
2017-10-11T17:55:58.523Z,13.00
2017-10-11T17:58:25.378Z,13.00
2017-10-11T18:00:52.344Z,13.00
2017-10-11T18:03:18.446Z,13.00
2017-10-11T18:05:44.550Z,13.00
2017-10-11T18:08:11.452Z,13.00
2017-10-11T18:10:37.740Z,13.00
2017-10-11T18:13:04.859Z,13.00
2017-10-11T18:15:31.044Z,13.00
2017-10-11T18:17:57.257Z,13.00
2017-10-11T18:20:23.550Z,13.00
2017-10-11T18:22:49.738Z,13.00
2017-10-11T18:25:16.603Z,13.00
2017-10-11T18:27:42.780Z,13.00
2017-10-11T18:30:08.990Z,13.00
2017-10-11T18:32:35.931Z,13.00
2017-10-11T18:35:02.845Z,13.00
2017-10-11T18:37:28.999Z,13.00
2017-10-11T18:39:55.445Z,13.00
2017-10-11T18:42:22.672Z,13.00
2017-10-11T18:44:49.653Z,12.90
2017-10-11T18:47:16.722Z,12.90
2017-10-11T18:49:43.583Z,13.00
2017-10-11T18:52:09.832Z,13.00
2017-10-11T18:54:36.152Z,13.00
2017-10-11T18:57:02.926Z,13.00
2017-10-11T18:59:29.079Z,12.90
2017-10-11T19:01:55.422Z,13.00
2017-10-11T19:04:21.764Z,13.00
2017-10-11T19:06:48.096Z,12.90
2017-10-11T19:09:14.347Z,12.90
2017-10-11T19:11:41.270Z,12.90
2017-10-11T19:14:07.474Z,12.90
2017-10-11T19:16:33.780Z,12.90
2017-10-11T19:18:59.995Z,12.90
2017-10-11T19:21:26.268Z,12.90
2017-10-11T19:23:52.474Z,12.90
2017-10-11T19:26:18.858Z,12.90
2017-10-11T19:28:45.742Z,12.80
2017-10-11T19:31:11.894Z,12.70
2017-10-11T19:33:38.175Z,12.80
2017-10-11T19:36:04.313Z,12.80
2017-10-11T19:38:30.510Z,12.80
2017-10-11T19:40:57.466Z,12.80
2017-10-11T19:43:24.341Z,12.80
2017-10-11T19:45:50.501Z,12.70
2017-10-11T19:48:16.699Z,12.70
2017-10-11T19:50:43.410Z,12.70
2017-10-11T19:53:09.531Z,12.60
2017-10-11T19:55:36.555Z,12.50
2017-10-11T19:58:03.556Z,12.50
2017-10-11T20:00:34.253Z,12.50
2017-10-11T20:03:00.519Z,12.40
2017-10-11T20:05:26.780Z,12.40
2017-10-11T20:07:54.050Z,12.30
2017-10-11T20:10:21.134Z,12.20
2017-10-11T20:12:47.367Z,12.20
2017-10-11T20:15:13.539Z,12.20
2017-10-11T20:17:40.438Z,12.20
2017-10-11T20:20:06.594Z,12.20
2017-10-11T20:22:32.958Z,12.20
2017-10-11T20:24:59.184Z,12.10
2017-10-11T20:27:25.302Z,12.00
2017-10-11T20:29:52.203Z,11.90
2017-10-11T20:32:18.355Z,11.90
2017-10-11T20:34:44.482Z,11.70
2017-10-11T20:37:11.456Z,11.80
2017-10-11T20:39:37.774Z,11.80
2017-10-11T20:42:04.789Z,11.90
2017-10-11T20:44:30.941Z,11.80
2017-10-11T20:46:57.114Z,11.90
2017-10-11T20:49:23.211Z,11.90
2017-10-11T20:51:49.298Z,12.00
2017-10-11T20:54:16.135Z,11.90
2017-10-11T20:56:43.080Z,11.80
2017-10-11T20:59:09.240Z,11.80
2017-10-11T21:01:35.581Z,11.70
2017-10-11T21:04:01.899Z,11.80
2017-10-11T21:06:28.182Z,11.80
2017-10-11T21:08:54.307Z,11.70
2017-10-11T21:11:22.158Z,11.50
2017-10-11T21:13:48.352Z,11.50
2017-10-11T21:16:14.591Z,11.40
2017-10-11T21:18:40.716Z,11.30
2017-10-11T21:21:06.911Z,11.30
2017-10-11T21:23:33.152Z,11.30
2017-10-11T21:25:59.431Z,11.50
2017-10-11T21:28:25.655Z,11.60
2017-10-11T21:30:51.961Z,11.60
2017-10-11T21:33:18.237Z,11.60
2017-10-11T21:35:45.203Z,11.60
2017-10-11T21:38:11.442Z,11.60
2017-10-11T21:40:37.606Z,11.70
2017-10-11T21:43:03.794Z,11.90
2017-10-11T21:45:29.968Z,11.90
2017-10-11T21:47:56.043Z,11.90
2017-10-11T21:50:22.207Z,11.90
2017-10-11T21:52:48.346Z,11.90
2017-10-11T21:55:14.771Z,11.90
2017-10-11T21:57:41.047Z,11.90
2017-10-11T22:00:07.138Z,12.00
2017-10-11T22:02:34.183Z,12.00
2017-10-11T22:05:00.318Z,12.00
2017-10-11T22:07:27.127Z,12.10
2017-10-11T22:09:53.355Z,12.10
2017-10-11T22:12:19.593Z,12.10
2017-10-11T22:14:45.913Z,12.10
2017-10-11T22:17:13.579Z,12.00
2017-10-11T22:19:39.660Z,12.00
2017-10-11T22:22:05.791Z,12.00
2017-10-11T22:24:32.133Z,12.00
2017-10-11T22:26:58.338Z,12.00
2017-10-11T22:29:24.588Z,12.00
2017-10-11T22:31:50.835Z,12.00
2017-10-11T22:34:17.042Z,12.00
2017-10-11T22:36:43.165Z,12.10
2017-10-11T22:39:09.284Z,12.20
2017-10-11T22:41:35.445Z,12.20
2017-10-11T22:44:01.589Z,12.20
2017-10-11T22:46:28.519Z,12.20
2017-10-11T22:48:54.716Z,12.10
2017-10-11T22:51:21.453Z,12.20
2017-10-11T22:53:47.585Z,12.20
2017-10-11T22:56:13.808Z,12.30
2017-10-11T22:58:40.032Z,12.30
2017-10-11T23:01:06.181Z,12.40
2017-10-11T23:03:32.396Z,12.40
2017-10-11T23:05:58.501Z,12.50
2017-10-11T23:08:24.664Z,12.50
2017-10-11T23:10:50.890Z,12.50
2017-10-11T23:13:17.057Z,12.50
2017-10-11T23:15:43.206Z,12.50
2017-10-11T23:18:09.421Z,12.50
2017-10-11T23:20:35.526Z,12.50
2017-10-11T23:23:01.619Z,12.60
2017-10-11T23:25:27.791Z,12.60
2017-10-11T23:27:53.945Z,12.60
2017-10-11T23:30:20.102Z,12.60
2017-10-11T23:32:47.050Z,12.60
2017-10-11T23:35:14.011Z,12.60
2017-10-11T23:37:40.239Z,12.60
2017-10-11T23:40:06.317Z,12.60
2017-10-11T23:42:32.519Z,12.70
2017-10-11T23:44:58.675Z,12.70
2017-10-11T23:47:26.301Z,12.60
2017-10-11T23:49:52.475Z,12.70
2017-10-11T23:52:18.607Z,12.70
2017-10-11T23:54:45.473Z,12.70
2017-10-11T23:57:11.736Z,12.70
2017-10-11T23:59:37.879Z,12.80
